createdAt,value
2022-10-02T00:00:36.512Z,3.13
2022-10-02T00:03:12.098Z,2.35
2022-10-02T00:05:45.797Z,2.58
2022-10-02T00:08:32.042Z,2.50
2022-10-02T00:11:10.868Z,2.40
2022-10-02T00:13:45.967Z,2.95
2022-10-02T00:16:41.192Z,2.67
2022-10-02T00:19:15.654Z,2.15
2022-10-02T00:22:19.257Z,2.28
2022-10-02T00:24:56.748Z,3.40
2022-10-02T00:27:47.400Z,2.28
2022-10-02T00:30:17.815Z,1.83
2022-10-02T00:33:04.894Z,3.53
2022-10-02T00:35:44.298Z,1.92
2022-10-02T00:38:38.070Z,2.00
2022-10-02T00:41:24.139Z,2.83
2022-10-02T00:44:00.174Z,2.55
2022-10-02T00:46:39.845Z,1.95
2022-10-02T00:49:15.308Z,2.05
2022-10-02T00:51:54.138Z,3.05
2022-10-02T00:54:59.135Z,3.88
2022-10-02T00:57:40.407Z,2.30
2022-10-02T01:00:17.057Z,2.30
2022-10-02T01:02:50.089Z,2.25
2022-10-02T01:05:17.055Z,2.25
2022-10-02T01:07:46.971Z,2.13
2022-10-02T01:10:15.065Z,2.97
2022-10-02T01:12:45.966Z,2.63
2022-10-02T01:15:19.700Z,4.13
2022-10-02T01:20:17.684Z,2.47
2022-10-02T01:22:49.238Z,2.42
2022-10-02T01:25:16.066Z,1.90
2022-10-02T01:27:43.421Z,2.80
2022-10-02T01:30:14.074Z,2.80
2022-10-02T01:32:55.046Z,2.67
2022-10-02T01:35:26.091Z,3.00
2022-10-02T01:37:55.129Z,2.38
2022-10-02T01:40:27.775Z,3.05
2022-10-02T01:42:58.205Z,3.15
2022-10-02T01:45:34.183Z,2.42
2022-10-02T01:48:19.495Z,2.28
2022-10-02T01:51:01.706Z,2.45
2022-10-02T01:53:57.576Z,1.80
2022-10-02T01:56:31.637Z,2.78
2022-10-02T01:59:07.455Z,1.63
2022-10-02T02:01:40.410Z,2.80
2022-10-02T02:04:25.089Z,2.38
2022-10-02T02:07:15.306Z,1.65
2022-10-02T02:10:02.055Z,2.05
2022-10-02T02:12:47.472Z,2.20
2022-10-02T02:15:23.655Z,2.42
2022-10-02T02:17:56.709Z,2.38
2022-10-02T02:20:30.905Z,2.47
2022-10-02T02:23:05.543Z,1.83
2022-10-02T02:25:37.622Z,2.15
2022-10-02T02:28:08.885Z,2.53
2022-10-02T02:30:39.254Z,2.08
2022-10-02T02:33:11.583Z,2.25
2022-10-02T02:35:43.789Z,2.47
2022-10-02T02:38:17.534Z,2.85
2022-10-02T02:40:46.750Z,1.60
2022-10-02T02:43:23.233Z,2.60
2022-10-02T02:46:02.010Z,2.80
2022-10-02T02:48:39.298Z,2.33
2022-10-02T02:51:18.566Z,2.35
2022-10-02T02:53:56.786Z,3.03
2022-10-02T02:56:25.549Z,2.20
2022-10-02T02:58:58.311Z,1.30
2022-10-02T03:01:25.359Z,1.93
2022-10-02T03:03:52.239Z,1.58
2022-10-02T03:06:18.995Z,2.03
2022-10-02T03:08:47.686Z,2.22
2022-10-02T03:11:49.953Z,2.33
2022-10-02T03:14:38.174Z,2.28
2022-10-02T03:17:13.770Z,2.17
2022-10-02T03:19:53.259Z,2.08
2022-10-02T03:22:29.689Z,2.22
2022-10-02T03:25:05.921Z,2.55
2022-10-02T03:27:48.050Z,2.95
2022-10-02T03:30:20.515Z,2.20
2022-10-02T03:32:51.395Z,2.33
2022-10-02T03:35:18.455Z,2.05
2022-10-02T03:37:49.599Z,1.88
2022-10-02T03:40:16.529Z,1.80
2022-10-02T03:42:43.477Z,1.83
2022-10-02T03:45:10.486Z,2.55
2022-10-02T03:47:37.182Z,1.90
2022-10-02T03:50:04.473Z,2.20
2022-10-02T03:52:32.449Z,2.58
2022-10-02T03:55:03.219Z,1.85
2022-10-02T03:57:33.399Z,1.90
2022-10-02T04:00:19.568Z,1.80
2022-10-02T04:03:00.299Z,2.42
2022-10-02T04:05:51.454Z,2.05
2022-10-02T04:08:22.408Z,2.35
2022-10-02T04:11:03.126Z,2.72
2022-10-02T04:13:39.887Z,1.70
2022-10-02T04:16:10.661Z,1.13
2022-10-02T04:18:43.541Z,1.63
2022-10-02T04:21:35.817Z,1.53
2022-10-02T04:24:28.840Z,1.95
2022-10-02T04:27:02.335Z,1.30
2022-10-02T04:29:36.899Z,1.73
2022-10-02T04:32:17.404Z,1.83
2022-10-02T04:34:44.438Z,1.55
2022-10-02T04:37:56.127Z,1.23
2022-10-02T04:40:50.461Z,2.42
2022-10-02T04:43:35.983Z,1.63
2022-10-02T04:46:11.704Z,1.65
2022-10-02T04:48:41.264Z,1.48
2022-10-02T04:51:22.950Z,1.50
2022-10-02T04:54:01.563Z,2.38
2022-10-02T04:56:56.453Z,1.10
2022-10-02T05:00:15.342Z,1.38
2022-10-02T05:03:14.013Z,1.30
2022-10-02T05:05:57.837Z,3.15
2022-10-02T05:08:39.460Z,2.08
2022-10-02T05:11:21.284Z,1.30
2022-10-02T05:14:15.313Z,0.95
2022-10-02T05:16:58.610Z,1.10
2022-10-02T05:19:29.789Z,1.05
2022-10-02T05:22:14.773Z,0.95
2022-10-02T05:24:50.477Z,1.60
2022-10-02T05:27:37.461Z,1.73
2022-10-02T05:30:32.886Z,1.88
2022-10-02T05:33:38.358Z,1.17
2022-10-02T05:36:29.813Z,2.10
2022-10-02T05:39:30.858Z,1.92
2022-10-02T05:42:26.494Z,1.33
2022-10-02T05:45:00.956Z,1.48
2022-10-02T05:47:32.297Z,1.23
2022-10-02T05:50:17.300Z,1.80
2022-10-02T05:52:51.522Z,1.10
2022-10-02T05:55:21.746Z,1.45
2022-10-02T05:57:56.755Z,1.98
2022-10-02T06:00:27.016Z,1.02
2022-10-02T06:02:54.185Z,0.95
2022-10-02T06:05:27.740Z,1.30
2022-10-02T06:07:58.000Z,1.85
2022-10-02T06:10:28.854Z,1.40
2022-10-02T06:13:02.537Z,1.75
2022-10-02T06:17:59.914Z,1.25
2022-10-02T06:20:36.000Z,1.33
2022-10-02T06:23:34.168Z,1.42
2022-10-02T06:26:12.692Z,1.25
2022-10-02T06:28:44.671Z,1.85
2022-10-02T06:31:22.044Z,1.90
2022-10-02T06:33:51.623Z,1.55
2022-10-02T06:36:38.175Z,1.30
2022-10-02T06:39:26.766Z,1.60
2022-10-02T06:42:33.791Z,1.65
2022-10-02T06:45:06.823Z,1.38
2022-10-02T06:48:14.427Z,2.15
2022-10-02T06:50:44.396Z,1.17
2022-10-02T06:53:27.521Z,1.80
2022-10-02T06:56:12.493Z,1.57
2022-10-02T06:58:58.643Z,2.22
2022-10-02T07:01:35.355Z,2.25
2022-10-02T07:04:32.166Z,2.40
2022-10-02T07:07:40.829Z,1.90
2022-10-02T07:10:32.811Z,2.35
2022-10-02T07:13:13.211Z,2.40
2022-10-02T07:16:06.718Z,2.83
2022-10-02T07:18:33.577Z,2.95
2022-10-02T07:21:19.788Z,2.65
2022-10-02T07:24:02.628Z,2.53
2022-10-02T07:27:09.180Z,2.57
2022-10-02T07:29:50.452Z,3.15
2022-10-02T07:32:42.316Z,2.63
2022-10-02T07:35:39.398Z,4.65
2022-10-02T07:40:49.026Z,3.55
2022-10-02T07:43:27.791Z,3.65
2022-10-02T07:46:16.948Z,3.72
2022-10-02T07:48:49.582Z,3.00
2022-10-02T07:51:50.253Z,3.28
2022-10-02T07:54:30.993Z,3.88
2022-10-02T07:57:09.001Z,2.75
2022-10-02T07:59:40.424Z,3.42
2022-10-02T08:02:27.330Z,4.15
2022-10-02T08:04:59.043Z,4.15
2022-10-02T08:07:28.002Z,3.50
2022-10-02T08:09:56.130Z,3.78
2022-10-02T08:12:28.819Z,4.10
2022-10-02T08:14:58.544Z,3.67
2022-10-02T08:17:49.886Z,3.85
2022-10-02T08:20:27.402Z,3.58
2022-10-02T08:23:01.748Z,3.97
2022-10-02T08:25:34.015Z,3.38
2022-10-02T08:28:30.350Z,4.15
2022-10-02T08:30:58.424Z,3.40
2022-10-02T08:33:25.635Z,4.30
2022-10-02T08:36:04.418Z,3.85
2022-10-02T08:38:54.488Z,3.83
2022-10-02T08:41:42.494Z,3.90
2022-10-02T08:44:24.300Z,3.03
2022-10-02T08:47:03.163Z,2.53
2022-10-02T08:50:11.584Z,3.08
2022-10-02T08:53:11.023Z,2.75
2022-10-02T08:56:17.725Z,3.90
2022-10-02T08:58:57.875Z,3.80
2022-10-02T09:01:44.138Z,3.80
2022-10-02T09:04:22.998Z,3.63
2022-10-02T09:07:29.223Z,3.78
2022-10-02T09:10:19.880Z,4.65
2022-10-02T09:12:58.157Z,4.03
2022-10-02T09:16:01.086Z,5.68
2022-10-02T09:18:36.953Z,4.93
2022-10-02T09:21:12.579Z,4.53
2022-10-02T09:23:45.434Z,4.70
2022-10-02T09:26:19.941Z,4.67
2022-10-02T09:29:13.978Z,5.25
2022-10-02T09:31:58.761Z,4.75
2022-10-02T09:34:34.286Z,4.20
2022-10-02T09:37:16.784Z,3.97
2022-10-02T09:40:02.467Z,4.57
2022-10-02T09:42:51.144Z,4.13
2022-10-02T09:45:56.261Z,5.13
2022-10-02T09:48:45.296Z,4.82
2022-10-02T09:51:49.058Z,4.70
2022-10-02T09:54:33.841Z,4.97
2022-10-02T09:57:15.697Z,4.40
2022-10-02T10:00:20.050Z,5.25
2022-10-02T10:03:14.265Z,4.53
2022-10-02T10:06:17.515Z,5.38
2022-10-02T10:08:59.581Z,4.53
2022-10-02T10:11:32.783Z,4.55
2022-10-02T10:14:08.926Z,4.65
2022-10-02T10:17:05.675Z,4.47
2022-10-02T10:20:14.384Z,4.63
2022-10-02T10:22:57.582Z,5.50
2022-10-02T10:26:01.761Z,4.53
2022-10-02T10:28:51.485Z,4.45
2022-10-02T10:31:50.288Z,5.15
2022-10-02T10:34:47.200Z,5.13
2022-10-02T10:37:57.739Z,6.10
2022-10-02T10:40:55.270Z,5.43
2022-10-02T10:44:02.548Z,5.53
2022-10-02T10:46:41.742Z,5.20
2022-10-02T10:49:37.833Z,6.70
2022-10-02T10:52:25.104Z,6.15
2022-10-02T10:55:07.914Z,6.10
2022-10-02T10:57:41.122Z,6.13
2022-10-02T11:00:31.702Z,6.88
2022-10-02T11:03:20.701Z,5.80
2022-10-02T11:06:26.279Z,4.65
2022-10-02T11:09:26.799Z,5.55
2022-10-02T11:12:25.606Z,6.32
2022-10-02T11:15:17.535Z,5.80
2022-10-02T11:17:56.460Z,5.93
2022-10-02T11:20:59.156Z,6.47
2022-10-02T11:23:50.388Z,6.50
2022-10-02T11:26:17.675Z,6.30
2022-10-02T11:29:09.287Z,6.28
2022-10-02T11:31:58.044Z,6.00
2022-10-02T11:34:50.364Z,6.28
2022-10-02T11:37:54.886Z,5.97
2022-10-02T11:43:16.166Z,7.13
2022-10-02T11:46:08.901Z,6.00
2022-10-02T11:48:55.805Z,6.10
2022-10-02T11:51:28.896Z,5.68
2022-10-02T11:54:16.877Z,7.57
2022-10-02T11:57:01.832Z,6.25
2022-10-02T11:59:59.052Z,5.85
2022-10-02T12:03:07.034Z,6.70
2022-10-02T12:05:57.654Z,6.47
2022-10-02T12:08:47.011Z,6.75
2022-10-02T12:11:37.438Z,6.30
2022-10-02T12:14:28.386Z,6.72
2022-10-02T12:17:17.143Z,6.05
2022-10-02T12:20:11.225Z,6.95
2022-10-02T12:23:35.957Z,6.78
2022-10-02T12:26:52.240Z,5.60
2022-10-02T12:29:27.836Z,7.18
2022-10-02T12:32:36.429Z,6.15
2022-10-02T12:35:24.029Z,6.78
2022-10-02T12:38:16.258Z,7.20
2022-10-02T12:40:44.878Z,6.90
2022-10-02T12:43:36.431Z,5.75
2022-10-02T12:46:24.848Z,6.25
2022-10-02T12:49:13.023Z,6.45
2022-10-02T12:52:21.099Z,6.18
2022-10-02T12:55:12.288Z,5.93
2022-10-02T12:57:55.985Z,6.30
2022-10-02T13:00:43.435Z,5.45
2022-10-02T13:03:30.353Z,5.68
2022-10-02T13:06:12.553Z,6.10
2022-10-02T13:09:21.000Z,5.18
2022-10-02T13:12:14.393Z,5.03
2022-10-02T13:15:01.857Z,3.23
2022-10-02T13:17:57.419Z,2.70
2022-10-02T13:20:54.162Z,1.00
2022-10-02T13:23:56.578Z,1.02
2022-10-02T13:26:38.526Z,1.23
2022-10-02T13:29:26.097Z,1.52
2022-10-02T13:32:14.861Z,1.45
2022-10-02T13:34:51.791Z,1.50
2022-10-02T13:37:40.390Z,1.27
2022-10-02T13:40:21.779Z,1.63
2022-10-02T13:43:09.079Z,1.00
2022-10-02T13:46:08.550Z,1.15
2022-10-02T13:48:59.952Z,1.25
2022-10-02T13:51:36.847Z,1.10
2022-10-02T13:54:14.496Z,1.02
2022-10-02T13:57:04.943Z,1.13
2022-10-02T13:59:38.267Z,0.77
2022-10-02T14:02:22.817Z,1.40
2022-10-02T14:05:06.994Z,0.98
2022-10-02T14:07:49.299Z,1.40
2022-10-02T14:10:29.854Z,1.30
2022-10-02T14:13:06.410Z,1.25
2022-10-02T14:16:07.636Z,0.90
2022-10-02T14:19:20.105Z,0.55
2022-10-02T14:22:01.491Z,0.75
2022-10-02T14:25:03.763Z,1.05
2022-10-02T14:28:08.254Z,0.70
2022-10-02T14:33:37.457Z,0.75
2022-10-02T14:36:20.300Z,1.40
2022-10-02T14:39:24.871Z,1.27
2022-10-02T14:42:19.621Z,1.23
2022-10-02T14:45:24.963Z,1.30
2022-10-02T14:48:17.817Z,1.83
2022-10-02T14:50:56.602Z,0.75
2022-10-02T14:53:41.245Z,1.55
2022-10-02T14:56:45.369Z,1.48
2022-10-02T14:59:27.182Z,0.77
2022-10-02T15:02:09.290Z,2.13
2022-10-02T15:04:51.302Z,1.33
2022-10-02T15:07:25.963Z,1.88
2022-10-02T15:10:07.544Z,0.95
2022-10-02T15:12:43.712Z,1.60
2022-10-02T15:15:33.566Z,0.90
2022-10-02T15:18:45.456Z,1.10
2022-10-02T15:21:26.104Z,1.52
2022-10-02T15:23:57.505Z,1.63
2022-10-02T15:27:00.937Z,1.00
2022-10-02T15:29:36.935Z,1.33
2022-10-02T15:32:09.795Z,0.80
2022-10-02T15:34:46.805Z,0.73
2022-10-02T15:37:40.794Z,0.98
2022-10-02T15:40:28.793Z,1.10
2022-10-02T15:42:58.801Z,1.60
2022-10-02T15:46:00.239Z,1.38
2022-10-02T15:48:38.291Z,1.15
2022-10-02T15:51:31.832Z,0.88
2022-10-02T15:54:21.421Z,1.50
2022-10-02T15:56:58.931Z,1.08
2022-10-02T15:59:51.794Z,1.05
2022-10-02T16:02:35.733Z,1.83
2022-10-02T16:08:08.861Z,0.70
2022-10-02T16:10:52.742Z,1.70
2022-10-02T16:16:08.015Z,1.13
2022-10-02T16:18:57.689Z,1.05
2022-10-02T16:22:03.658Z,1.13
2022-10-02T16:24:42.078Z,1.65
2022-10-02T16:27:20.889Z,1.58
2022-10-02T16:30:07.655Z,1.80
2022-10-02T16:33:10.290Z,1.15
2022-10-02T16:36:14.763Z,1.85
2022-10-02T16:41:41.931Z,0.88
2022-10-02T16:44:17.670Z,1.33
2022-10-02T16:47:05.245Z,1.17
2022-10-02T16:50:05.763Z,1.10
2022-10-02T16:53:01.758Z,1.27
2022-10-02T16:55:48.510Z,0.85
2022-10-02T16:58:24.921Z,1.40
2022-10-02T17:01:07.271Z,1.33
2022-10-02T17:03:45.376Z,2.22
2022-10-02T17:06:17.988Z,1.00
2022-10-02T17:09:07.961Z,1.05
2022-10-02T17:11:51.269Z,1.10
2022-10-02T17:14:47.097Z,1.90
2022-10-02T17:17:23.774Z,1.67
2022-10-02T17:19:53.424Z,1.13
2022-10-02T17:22:53.916Z,2.25
2022-10-02T17:25:53.602Z,1.35
2022-10-02T17:28:43.275Z,1.73
2022-10-02T17:31:22.124Z,1.17
2022-10-02T17:33:55.732Z,1.15
2022-10-02T17:39:05.785Z,1.50
2022-10-02T17:41:49.531Z,1.65
2022-10-02T17:44:28.985Z,1.75
2022-10-02T17:47:28.199Z,1.63
2022-10-02T17:50:19.326Z,2.40
2022-10-02T17:53:37.447Z,1.05
2022-10-02T17:56:28.883Z,1.60
2022-10-02T17:59:33.420Z,1.83
2022-10-02T18:05:17.518Z,2.38
2022-10-02T18:07:57.387Z,1.30
2022-10-02T18:10:58.866Z,1.70
2022-10-02T18:14:03.413Z,1.65
2022-10-02T18:19:30.303Z,1.80
2022-10-02T18:21:57.515Z,1.40
2022-10-02T18:25:12.027Z,1.30
2022-10-02T18:27:47.898Z,1.88
2022-10-02T18:30:26.139Z,1.88
2022-10-02T18:32:52.914Z,1.60
2022-10-02T18:35:45.406Z,2.22
2022-10-02T18:38:16.249Z,2.20
2022-10-02T18:41:07.050Z,2.05
2022-10-02T18:43:47.597Z,2.03
2022-10-02T18:46:45.210Z,1.67
2022-10-02T18:49:32.883Z,2.22
2022-10-02T18:52:08.775Z,2.45
2022-10-02T18:55:14.039Z,1.80
2022-10-02T18:58:11.690Z,1.77
2022-10-02T19:01:10.709Z,1.50
2022-10-02T19:04:01.158Z,1.65
2022-10-02T19:06:48.627Z,1.27
2022-10-02T19:09:27.871Z,2.30
2022-10-02T19:12:01.726Z,2.08
2022-10-02T19:14:33.088Z,2.05
2022-10-02T19:17:08.709Z,1.65
2022-10-02T19:19:36.780Z,2.00
2022-10-02T19:22:32.138Z,1.92
2022-10-02T19:25:16.163Z,2.60
2022-10-02T19:27:49.788Z,1.60
2022-10-02T19:30:26.609Z,2.50
2022-10-02T19:32:58.519Z,1.70
2022-10-02T19:35:34.550Z,2.65
2022-10-02T19:38:17.956Z,1.40
2022-10-02T19:40:52.522Z,1.80
2022-10-02T19:43:32.420Z,2.00
2022-10-02T19:46:05.186Z,2.03
2022-10-02T19:48:32.944Z,2.47
2022-10-02T19:51:02.379Z,2.40
2022-10-02T19:53:36.134Z,1.58
2022-10-02T19:56:10.294Z,2.33
2022-10-02T19:58:51.509Z,1.77
2022-10-02T20:01:26.584Z,2.50
2022-10-02T20:03:59.226Z,2.10
2022-10-02T20:06:31.561Z,1.85
2022-10-02T20:09:18.986Z,2.53
2022-10-02T20:11:50.092Z,3.00
2022-10-02T20:14:27.049Z,1.52
2022-10-02T20:17:10.916Z,2.50
2022-10-02T20:19:45.599Z,1.88
2022-10-02T20:22:34.894Z,1.92
2022-10-02T20:25:28.671Z,2.40
2022-10-02T20:28:18.125Z,2.17
2022-10-02T20:30:49.612Z,2.25
2022-10-02T20:33:31.098Z,2.08
2022-10-02T20:36:09.382Z,3.05
2022-10-02T20:38:41.432Z,2.72
2022-10-02T20:41:24.864Z,4.47
2022-10-02T20:44:02.055Z,3.10
2022-10-02T20:46:47.653Z,2.25
2022-10-02T20:49:17.669Z,2.10
2022-10-02T20:52:13.141Z,2.42
2022-10-02T20:55:10.883Z,2.40
2022-10-02T20:58:03.982Z,2.58
2022-10-02T21:01:00.903Z,3.30
2022-10-02T21:03:53.808Z,2.92
2022-10-02T21:06:46.223Z,2.97
2022-10-02T21:09:51.384Z,3.33
2022-10-02T21:12:39.792Z,3.88
2022-10-02T21:15:24.818Z,3.25
2022-10-02T21:18:11.736Z,3.05
2022-10-02T21:20:52.210Z,3.58
2022-10-02T21:23:56.761Z,3.05
2022-10-02T21:26:51.548Z,2.72
2022-10-02T21:29:46.387Z,2.60
2022-10-02T21:32:28.900Z,2.30
2022-10-02T21:35:06.997Z,2.53
2022-10-02T21:38:06.798Z,3.13
2022-10-02T21:40:48.377Z,2.85
2022-10-02T21:43:37.077Z,2.47
2022-10-02T21:46:10.127Z,2.50
2022-10-02T21:49:12.789Z,3.08
2022-10-02T21:51:51.442Z,2.40
2022-10-02T21:54:46.500Z,2.63
2022-10-02T21:57:16.066Z,2.35
2022-10-02T22:00:08.253Z,2.03
2022-10-02T22:03:05.321Z,2.97
2022-10-02T22:05:51.085Z,2.92
2022-10-02T22:08:36.659Z,2.40
2022-10-02T22:11:24.040Z,3.35
2022-10-02T22:13:58.054Z,2.45
2022-10-02T22:16:59.643Z,2.17
2022-10-02T22:19:45.021Z,3.03
2022-10-02T22:22:31.281Z,2.33
2022-10-02T22:25:01.225Z,3.25
2022-10-02T22:27:46.473Z,3.10
2022-10-02T22:30:24.208Z,2.70
2022-10-02T22:33:13.102Z,2.50
2022-10-02T22:35:52.081Z,3.85
2022-10-02T22:39:01.028Z,3.30
2022-10-02T22:41:38.486Z,3.10
2022-10-02T22:44:25.741Z,3.13
2022-10-02T22:47:03.693Z,2.75
2022-10-02T22:49:43.987Z,3.55
2022-10-02T22:52:22.584Z,2.67
2022-10-02T22:54:58.638Z,2.17
2022-10-02T22:57:43.503Z,2.70
2022-10-02T23:00:18.786Z,2.30
2022-10-02T23:03:21.274Z,3.25
2022-10-02T23:06:03.697Z,2.70
2022-10-02T23:08:53.669Z,2.63
2022-10-02T23:11:29.477Z,2.70
2022-10-02T23:14:07.346Z,2.40
2022-10-02T23:16:42.739Z,2.88
2022-10-02T23:19:22.497Z,4.28
2022-10-02T23:21:58.291Z,3.55
2022-10-02T23:24:36.005Z,2.17
2022-10-02T23:27:02.835Z,2.38
2022-10-02T23:29:50.748Z,1.92
2022-10-02T23:32:37.726Z,2.80
2022-10-02T23:35:07.269Z,3.33
2022-10-02T23:37:58.962Z,2.45
2022-10-02T23:40:49.329Z,2.80
2022-10-02T23:43:32.665Z,2.75
2022-10-02T23:46:14.956Z,2.58
2022-10-02T23:48:42.814Z,2.90
2022-10-02T23:51:18.479Z,2.97
2022-10-02T23:54:14.954Z,2.55
2022-10-02T23:56:44.758Z,3.20
2022-10-02T23:59:42.050Z,3.78
